Time;durP1;ratioP1;P1;durP2;ratioP2;P2;SDS_P1;SDS_P2;PMS_P1;PMS_P2;Temp;Humidity;BMP_temperature;BMP_pressure;BME280_temperature;BME280_humidity;BME280_pressure;Samples;Min_cycle;Max_cycle;Signal;HPM_P1;HPM_P2
2023/05/16 00:00:51;;;;;;;57.77;3.03;;;;;;;;;;5072206;28;20487;-67
2023/05/16 00:03:19;;;;;;;58.00;3.40;;;;;;;;;;5072975;28;20462;-67
2023/05/16 00:05:46;;;;;;;57.70;2.93;;;;;;;;;;5072775;28;20524;-67
2023/05/16 00:08:14;;;;;;;57.90;2.87;;;;;;;;;;5072805;28;20952;-67
2023/05/16 00:10:41;;;;;;;57.60;2.60;;;;;;;;;;5072429;28;20467;-67
2023/05/16 00:13:09;;;;;;;57.67;2.80;;;;;;;;;;5073052;28;20453;-67
2023/05/16 00:15:37;;;;;;;57.70;3.00;;;;;;;;;;5073270;28;20483;-67
2023/05/16 00:18:04;;;;;;;57.73;2.60;;;;;;;;;;5073234;28;20936;-67
2023/05/16 00:20:33;;;;;;;60.87;3.40;;;;;;;;;;5072480;28;20491;-67
2023/05/16 00:23:00;;;;;;;57.70;2.70;;;;;;;;;;5072918;28;20456;-67
2023/05/16 00:25:28;;;;;;;59.23;3.87;;;;;;;;;;5073025;28;20455;-67
2023/05/16 00:27:55;;;;;;;57.53;2.73;;;;;;;;;;5072731;28;20861;-67
2023/05/16 00:30:22;;;;;;;58.10;2.90;;;;;;;;;;5071621;28;20471;-67
2023/05/16 00:32:49;;;;;;;57.57;3.00;;;;;;;;;;5072309;28;20448;-67
2023/05/16 00:35:16;;;;;;;57.47;2.80;;;;;;;;;;5072453;28;20475;-67
2023/05/16 00:37:45;;;;;;;57.50;2.67;;;;;;;;;;5072566;28;20447;-67
2023/05/16 00:40:12;;;;;;;59.20;4.23;;;;;;;;;;5071488;28;20475;-67
2023/05/16 00:42:40;;;;;;;57.80;2.80;;;;;;;;;;5072328;28;20530;-67
2023/05/16 00:45:07;;;;;;;58.00;3.73;;;;;;;;;;5071604;28;20443;-67
2023/05/16 00:47:34;;;;;;;57.60;3.00;;;;;;;;;;5072668;28;20455;-67
2023/05/16 00:50:02;;;;;;;57.33;2.50;;;;;;;;;;5071450;28;20450;-67
2023/05/16 00:52:31;;;;;;;57.90;2.83;;;;;;;;;;5072108;28;20452;-67
2023/05/16 00:55:00;;;;;;;57.73;3.10;;;;;;;;;;5071894;28;20947;-67
2023/05/16 00:57:27;;;;;;;57.80;2.73;;;;;;;;;;5071907;28;20940;-67
2023/05/16 00:59:55;;;;;;;57.47;2.80;;;;;;;;;;5070842;28;20451;-67
2023/05/16 01:02:22;;;;;;;57.77;3.00;;;;;;;;;;5071781;28;20458;-67
2023/05/16 01:04:50;;;;;;;58.10;3.40;;;;;;;;;;5071942;28;20494;-67
2023/05/16 01:07:17;;;;;;;57.83;3.07;;;;;;;;;;5072023;28;20453;-67
2023/05/16 01:09:44;;;;;;;57.60;2.67;;;;;;;;;;5071139;28;20966;-67
2023/05/16 01:12:15;;;;;;;57.50;2.70;;;;;;;;;;5071479;28;20467;-67
2023/05/16 01:14:46;;;;;;;58.20;3.80;;;;;;;;;;5071867;28;20447;-67
2023/05/16 01:17:17;;;;;;;57.97;3.40;;;;;;;;;;5071846;28;20447;-67
2023/05/16 01:20:00;;;;;;;59.20;3.33;;;;;;;;;;5070878;28;20944;-67
2023/05/16 01:22:32;;;;;;;57.63;3.23;;;;;;;;;;5072034;28;20450;-67
2023/05/16 01:25:06;;;;;;;57.90;2.70;;;;;;;;;;5071392;28;20463;-67
2023/05/16 01:27:35;;;;;;;57.90;3.00;;;;;;;;;;5071617;28;20537;-67
2023/05/16 01:30:11;;;;;;;57.57;2.73;;;;;;;;;;5070927;28;20466;-67
2023/05/16 01:32:38;;;;;;;58.00;3.40;;;;;;;;;;5071446;28;20427;-67
2023/05/16 01:35:06;;;;;;;57.90;2.80;;;;;;;;;;5071563;28;20815;-67
2023/05/16 01:37:37;;;;;;;57.67;2.70;;;;;;;;;;5071867;28;20443;-67
2023/05/16 01:40:06;;;;;;;57.67;3.13;;;;;;;;;;5070638;28;20453;-67
2023/05/16 01:42:35;;;;;;;58.87;3.50;;;;;;;;;;5071186;28;20918;-67
2023/05/16 01:45:05;;;;;;;58.20;3.33;;;;;;;;;;5071098;28;20955;-67
2023/05/16 01:47:33;;;;;;;57.53;2.80;;;;;;;;;;5067954;28;20903;-67
2023/05/16 01:50:05;;;;;;;57.60;3.10;;;;;;;;;;5070325;28;20505;-67
2023/05/16 01:52:33;;;;;;;57.90;3.43;;;;;;;;;;5071164;28;20475;-67
2023/05/16 01:55:00;;;;;;;57.37;2.53;;;;;;;;;;5070805;28;20459;-67
2023/05/16 01:57:28;;;;;;;58.33;3.30;;;;;;;;;;5070895;28;20447;-67
2023/05/16 01:59:58;;;;;;;57.33;2.70;;;;;;;;;;5070421;28;20447;-67
2023/05/16 02:02:25;;;;;;;57.83;3.00;;;;;;;;;;5070994;28;20443;-67
2023/05/16 02:04:52;;;;;;;57.57;2.53;;;;;;;;;;5071154;28;20451;-67
2023/05/16 02:07:19;;;;;;;57.57;2.60;;;;;;;;;;5071231;28;20447;-66
2023/05/16 02:09:47;;;;;;;57.60;2.70;;;;;;;;;;5070484;28;20542;-67
2023/05/16 02:12:14;;;;;;;58.93;2.93;;;;;;;;;;5071070;28;20463;-67
2023/05/16 02:14:41;;;;;;;57.60;2.80;;;;;;;;;;5070848;28;20546;-67
2023/05/16 02:17:10;;;;;;;58.27;3.00;;;;;;;;;;5071012;28;20473;-67
2023/05/16 02:19:37;;;;;;;57.50;2.80;;;;;;;;;;5070420;28;20908;-67
2023/05/16 02:22:04;;;;;;;57.47;2.40;;;;;;;;;;5071000;28;20493;-67
2023/05/16 02:24:31;;;;;;;57.67;2.70;;;;;;;;;;5070578;28;20463;-67
2023/05/16 02:26:58;;;;;;;58.43;3.50;;;;;;;;;;5070716;28;20454;-67
2023/05/16 02:29:25;;;;;;;57.47;2.73;;;;;;;;;;5070349;28;20473;-67
2023/05/16 02:31:53;;;;;;;57.80;3.03;;;;;;;;;;5070845;28;20835;-67
2023/05/16 02:34:21;;;;;;;58.10;3.73;;;;;;;;;;5070896;28;20491;-67
2023/05/16 02:36:48;;;;;;;58.20;3.47;;;;;;;;;;5070986;28;20841;-67
2023/05/16 02:39:16;;;;;;;57.60;3.03;;;;;;;;;;5069884;28;20451;-67
2023/05/16 02:41:43;;;;;;;58.57;3.23;;;;;;;;;;5070434;28;21003;-67
2023/05/16 02:44:10;;;;;;;57.73;2.70;;;;;;;;;;5070876;28;20470;-67
2023/05/16 02:46:37;;;;;;;58.17;3.60;;;;;;;;;;5070688;28;20451;-67
2023/05/16 02:49:04;;;;;;;58.37;2.93;;;;;;;;;;5069910;28;20447;-67
2023/05/16 02:51:33;;;;;;;58.50;3.03;;;;;;;;;;5070105;28;20467;-67
2023/05/16 02:54:00;;;;;;;57.60;2.80;;;;;;;;;;5070919;28;20447;-67
2023/05/16 02:56:27;;;;;;;57.43;2.73;;;;;;;;;;5070451;28;20451;-67
2023/05/16 02:58:55;;;;;;;57.63;2.60;;;;;;;;;;5069766;28;20455;-67
2023/05/16 03:01:22;;;;;;;57.97;3.13;;;;;;;;;;5070497;28;20861;-67
2023/05/16 03:03:49;;;;;;;57.40;2.80;;;;;;;;;;5070522;28;20451;-67
2023/05/16 03:06:16;;;;;;;57.70;2.80;;;;;;;;;;5070422;28;20916;-67
2023/05/16 03:08:46;;;;;;;60.10;5.37;;;;;;;;;;5073679;28;20470;-67
2023/05/16 03:11:13;;;;;;;57.63;2.70;;;;;;;;;;5074179;28;20495;-67
2023/05/16 03:13:41;;;;;;;57.70;2.70;;;;;;;;;;5074125;28;20449;-67
2023/05/16 03:16:08;;;;;;;60.13;4.00;;;;;;;;;;5074277;28;20458;-67
2023/05/16 03:18:35;;;;;;;57.50;2.50;;;;;;;;;;5073374;28;20443;-67
2023/05/16 03:21:02;;;;;;;57.80;3.10;;;;;;;;;;5073710;28;20483;-66
2023/05/16 03:23:29;;;;;;;58.10;3.27;;;;;;;;;;5074111;28;20443;-67
2023/05/16 03:26:05;;;;;;;57.37;2.43;;;;;;;;;;5073912;28;20469;-67
2023/05/16 03:28:32;;;;;;;63.10;4.23;;;;;;;;;;5073144;28;20862;-68
2023/05/16 03:30:59;;;;;;;57.83;3.23;;;;;;;;;;5073810;28;20806;-67
2023/05/16 03:33:26;;;;;;;57.80;3.47;;;;;;;;;;5073921;28;20764;-66
2023/05/16 03:35:54;;;;;;;58.43;3.10;;;;;;;;;;5073788;28;20537;-66
2023/05/16 03:38:21;;;;;;;58.00;3.63;;;;;;;;;;5073817;28;20446;-67
2023/05/16 03:40:48;;;;;;;58.10;3.37;;;;;;;;;;5072599;28;20463;-67
2023/05/16 03:43:16;;;;;;;57.47;2.67;;;;;;;;;;5073757;28;20816;-67
2023/05/16 03:45:43;;;;;;;57.70;2.60;;;;;;;;;;5073744;28;20448;-67
2023/05/16 03:48:11;;;;;;;58.10;3.43;;;;;;;;;;5073257;28;20962;-67
2023/05/16 03:50:38;;;;;;;58.10;2.90;;;;;;;;;;5073174;28;20463;-67
2023/05/16 03:53:05;;;;;;;59.37;4.30;;;;;;;;;;5073605;28;20457;-67
2023/05/16 03:55:32;;;;;;;57.87;3.00;;;;;;;;;;5073738;28;20463;-67
2023/05/16 03:58:00;;;;;;;57.87;3.10;;;;;;;;;;5073067;28;20460;-67
2023/05/16 04:00:28;;;;;;;57.70;2.67;;;;;;;;;;5072291;28;20871;-67
2023/05/16 04:02:55;;;;;;;57.80;3.07;;;;;;;;;;5073276;28;20487;-67
2023/05/16 04:05:22;;;;;;;57.27;2.67;;;;;;;;;;5073066;28;20963;-67
2023/05/16 04:07:50;;;;;;;57.57;2.70;;;;;;;;;;5073422;28;20446;-67
2023/05/16 04:10:17;;;;;;;57.53;2.83;;;;;;;;;;5072024;28;21041;-67
2023/05/16 04:12:44;;;;;;;57.87;3.10;;;;;;;;;;5073368;28;20445;-67
2023/05/16 04:15:11;;;;;;;57.80;2.73;;;;;;;;;;5073152;28;20547;-67
2023/05/16 04:17:40;;;;;;;58.10;3.50;;;;;;;;;;5072984;28;20540;-67
2023/05/16 04:20:07;;;;;;;59.17;4.53;;;;;;;;;;5071456;28;20983;-67
2023/05/16 04:22:34;;;;;;;58.97;4.03;;;;;;;;;;5072701;28;20479;-67
2023/05/16 04:25:01;;;;;;;58.07;3.40;;;;;;;;;;5072636;28;20462;-67
2023/05/16 04:27:29;;;;;;;58.00;3.40;;;;;;;;;;5072785;28;20458;-67
2023/05/16 04:29:58;;;;;;;57.40;3.10;;;;;;;;;;5072013;28;20451;-67
2023/05/16 04:32:27;;;;;;;59.40;4.80;;;;;;;;;;5072701;28;20444;-66
2023/05/16 04:34:56;;;;;;;57.57;3.07;;;;;;;;;;5072476;28;21089;-66
2023/05/16 04:37:23;;;;;;;60.43;3.53;;;;;;;;;;5072596;28;20453;-67
2023/05/16 04:39:50;;;;;;;57.80;3.47;;;;;;;;;;5071472;28;20451;-67
2023/05/16 04:42:17;;;;;;;58.27;3.33;;;;;;;;;;5072386;28;20487;-67
2023/05/16 04:44:46;;;;;;;57.90;3.33;;;;;;;;;;5072414;28;20986;-67
2023/05/16 04:47:13;;;;;;;57.90;3.30;;;;;;;;;;5072415;28;20896;-67
2023/05/16 04:49:41;;;;;;;57.37;2.60;;;;;;;;;;5071479;28;20450;-67
2023/05/16 04:52:10;;;;;;;60.80;5.43;;;;;;;;;;5072156;28;20470;-67
2023/05/16 04:54:38;;;;;;;58.20;3.87;;;;;;;;;;5072148;28;20901;-67
2023/05/16 04:57:06;;;;;;;58.37;3.87;;;;;;;;;;5072404;28;20489;-67
2023/05/16 04:59:33;;;;;;;57.80;2.80;;;;;;;;;;5071544;28;20801;-67
2023/05/16 05:02:00;;;;;;;57.60;3.30;;;;;;;;;;5071981;28;20494;-67
2023/05/16 05:04:27;;;;;;;60.33;3.07;;;;;;;;;;5072042;28;20444;-67
2023/05/16 05:06:55;;;;;;;57.93;3.70;;;;;;;;;;5072229;28;20443;-67
2023/05/16 05:09:23;;;;;;;57.40;2.90;;;;;;;;;;5071272;28;20820;-67
2023/05/16 05:11:51;;;;;;;58.37;3.53;;;;;;;;;;5071948;28;20463;-67
2023/05/16 05:14:18;;;;;;;58.43;3.67;;;;;;;;;;5071925;28;20922;-67
2023/05/16 05:16:45;;;;;;;57.47;2.90;;;;;;;;;;5071866;28;20456;-67
2023/05/16 05:19:12;;;;;;;57.80;3.10;;;;;;;;;;5071029;28;20466;-67
2023/05/16 05:21:39;;;;;;;58.07;3.43;;;;;;;;;;5071334;28;20491;-67
2023/05/16 05:24:06;;;;;;;57.50;2.73;;;;;;;;;;5071637;28;20497;-67
2023/05/16 05:26:35;;;;;;;58.00;3.27;;;;;;;;;;5071679;28;20454;-67
2023/05/16 05:29:02;;;;;;;61.97;4.90;;;;;;;;;;5070984;28;20470;-67
2023/05/16 05:31:29;;;;;;;57.53;3.40;;;;;;;;;;5071715;28;20478;-67
2023/05/16 05:33:56;;;;;;;57.30;2.90;;;;;;;;;;5071780;28;20443;-67
2023/05/16 05:36:23;;;;;;;59.37;6.53;;;;;;;;;;5071279;28;20444;-67
2023/05/16 05:38:52;;;;;;;59.27;4.17;;;;;;;;;;5070912;28;20443;-67
2023/05/16 05:41:20;;;;;;;58.43;3.20;;;;;;;;;;5071334;28;20818;-67
2023/05/16 05:43:49;;;;;;;59.07;4.03;;;;;;;;;;5071639;28;20831;-67
2023/05/16 05:46:16;;;;;;;57.80;3.10;;;;;;;;;;5071393;28;20816;-67
2023/05/16 05:48:43;;;;;;;59.60;3.43;;;;;;;;;;5070316;28;20454;-69
2023/05/16 05:51:10;;;;;;;57.97;3.53;;;;;;;;;;5071261;28;20475;-69
2023/05/16 05:53:37;;;;;;;58.00;4.07;;;;;;;;;;5071558;28;20450;-69
2023/05/16 05:56:05;;;;;;;60.57;3.43;;;;;;;;;;5071321;28;20825;-69
2023/05/16 05:58:32;;;;;;;59.30;4.23;;;;;;;;;;5070537;28;20456;-70
2023/05/16 06:01:01;;;;;;;59.33;3.27;;;;;;;;;;5071074;28;20641;-69
2023/05/16 06:03:28;;;;;;;59.00;4.13;;;;;;;;;;5071181;28;20515;-69
2023/05/16 06:05:55;;;;;;;58.77;3.70;;;;;;;;;;5070969;28;20447;-69
2023/05/16 06:08:22;;;;;;;58.13;3.17;;;;;;;;;;5071434;28;20447;-69
2023/05/16 06:10:49;;;;;;;59.30;4.40;;;;;;;;;;5070350;28;20501;-69
2023/05/16 06:13:16;;;;;;;57.60;3.57;;;;;;;;;;5071254;28;20450;-70
2023/05/16 06:15:43;;;;;;;58.60;4.50;;;;;;;;;;5070876;28;20457;-69
2023/05/16 06:18:12;;;;;;;61.60;3.57;;;;;;;;;;5070834;28;20975;-69
2023/05/16 06:20:39;;;;;;;59.27;4.50;;;;;;;;;;5070042;28;20474;-69
2023/05/16 06:23:06;;;;;;;58.97;3.30;;;;;;;;;;5070742;28;21034;-70
2023/05/16 06:25:33;;;;;;;58.57;4.67;;;;;;;;;;5070787;28;20455;-67
2023/05/16 06:28:00;;;;;;;58.30;3.07;;;;;;;;;;5070874;28;20440;-67
2023/05/16 06:30:27;;;;;;;60.17;5.63;;;;;;;;;;5070151;28;20471;-67
2023/05/16 06:32:54;;;;;;;60.93;4.53;;;;;;;;;;5070717;28;20462;-67
2023/05/16 06:35:23;;;;;;;61.30;3.80;;;;;;;;;;5070973;28;20447;-67
2023/05/16 06:37:51;;;;;;;60.10;5.23;;;;;;;;;;5071184;28;20851;-69
2023/05/16 06:40:18;;;;;;;57.87;2.80;;;;;;;;;;5070515;28;20474;-69
2023/05/16 06:42:45;;;;;;;61.40;3.97;;;;;;;;;;5073369;28;20973;-70
2023/05/16 06:45:12;;;;;;;59.27;4.60;;;;;;;;;;5074679;28;20962;-70
2023/05/16 06:47:40;;;;;;;57.17;2.80;;;;;;;;;;5074910;28;20454;-70
2023/05/16 06:50:09;;;;;;;57.33;3.30;;;;;;;;;;5074102;28;20458;-70
2023/05/16 06:52:37;;;;;;;58.57;5.27;;;;;;;;;;5074967;28;20470;-70
2023/05/16 06:55:04;;;;;;;60.43;3.57;;;;;;;;;;5074822;28;20839;-67
2023/05/16 06:57:32;;;;;;;59.33;3.83;;;;;;;;;;5074380;28;20447;-67
2023/05/16 06:59:59;;;;;;;57.70;3.47;;;;;;;;;;5073501;28;20542;-67
2023/05/16 07:02:26;;;;;;;58.77;4.27;;;;;;;;;;5074317;28;20479;-67
2023/05/16 07:04:53;;;;;;;58.70;2.70;;;;;;;;;;5074141;28;20455;-67
2023/05/16 07:07:20;;;;;;;61.67;3.97;;;;;;;;;;5074315;28;20533;-67
2023/05/16 07:09:49;;;;;;;57.70;3.03;;;;;;;;;;5073526;28;20457;-67
2023/05/16 07:12:17;;;;;;;57.20;3.03;;;;;;;;;;5073981;28;21009;-67
2023/05/16 07:14:44;;;;;;;57.10;2.70;;;;;;;;;;5073984;28;20501;-67
2023/05/16 07:17:11;;;;;;;57.60;3.13;;;;;;;;;;5074259;28;20526;-67
2023/05/16 07:19:38;;;;;;;57.40;2.50;;;;;;;;;;5073727;28;20447;-67
2023/05/16 07:22:05;;;;;;;57.67;3.80;;;;;;;;;;5073733;28;20483;-67
2023/05/16 07:24:33;;;;;;;57.97;3.27;;;;;;;;;;5073808;28;20463;-67
2023/05/16 07:27:01;;;;;;;58.30;4.37;;;;;;;;;;5073726;28;20954;-67
2023/05/16 07:29:29;;;;;;;57.60;3.43;;;;;;;;;;5073121;28;20454;-67
2023/05/16 07:31:56;;;;;;;57.80;3.80;;;;;;;;;;5073767;28;20476;-67
2023/05/16 07:34:23;;;;;;;57.80;3.67;;;;;;;;;;5073928;28;20451;-67
2023/05/16 07:36:50;;;;;;;58.07;4.53;;;;;;;;;;5073819;28;20444;-67
2023/05/16 07:39:17;;;;;;;57.70;3.70;;;;;;;;;;5072994;28;20458;-67
2023/05/16 07:41:44;;;;;;;57.73;3.20;;;;;;;;;;5073653;28;20840;-67
2023/05/16 07:44:13;;;;;;;58.53;4.30;;;;;;;;;;5073715;28;20479;-67
2023/05/16 07:46:43;;;;;;;60.23;4.33;;;;;;;;;;5073878;28;20443;-67
2023/05/16 07:49:10;;;;;;;58.80;3.43;;;;;;;;;;5072946;28;20455;-67
2023/05/16 07:51:37;;;;;;;57.53;3.10;;;;;;;;;;5072736;28;20493;-67
2023/05/16 07:54:05;;;;;;;57.40;2.67;;;;;;;;;;5072183;28;20444;-67
2023/05/16 07:56:32;;;;;;;58.53;3.33;;;;;;;;;;5073518;28;20517;-67
2023/05/16 07:59:00;;;;;;;57.27;3.00;;;;;;;;;;5072890;28;20448;-67
2023/05/16 08:01:28;;;;;;;57.40;3.17;;;;;;;;;;5073150;28;20544;-67
2023/05/16 08:03:55;;;;;;;58.97;4.17;;;;;;;;;;5073315;28;20847;-67
2023/05/16 08:06:22;;;;;;;58.47;3.40;;;;;;;;;;5072940;28;20451;-67
2023/05/16 08:08:49;;;;;;;59.67;3.40;;;;;;;;;;5072236;28;20454;-67
2023/05/16 08:11:16;;;;;;;57.77;3.43;;;;;;;;;;5073099;28;20495;-67
2023/05/16 08:13:44;;;;;;;58.83;3.10;;;;;;;;;;5073218;28;20481;-67
2023/05/16 08:16:11;;;;;;;57.13;3.20;;;;;;;;;;5073128;28;20451;-69
2023/05/16 08:18:40;;;;;;;58.07;4.50;;;;;;;;;;5072222;28;20447;-69
2023/05/16 08:21:07;;;;;;;58.07;2.93;;;;;;;;;;5072910;28;20467;-70
2023/05/16 08:23:35;;;;;;;56.90;2.40;;;;;;;;;;5072661;28;20487;-70
2023/05/16 08:26:02;;;;;;;58.90;3.87;;;;;;;;;;5073101;28;20519;-70
2023/05/16 08:28:29;;;;;;;59.23;3.10;;;;;;;;;;5072384;28;20447;-70
2023/05/16 08:30:56;;;;;;;57.33;3.00;;;;;;;;;;5072274;28;20498;-70
2023/05/16 08:33:24;;;;;;;57.80;2.53;;;;;;;;;;5072523;28;20456;-70
2023/05/16 08:35:52;;;;;;;57.50;2.70;;;;;;;;;;5072893;28;20455;-70
2023/05/16 08:38:20;;;;;;;57.60;3.27;;;;;;;;;;5072722;28;20791;-70
2023/05/16 08:40:47;;;;;;;58.23;2.70;;;;;;;;;;5071797;28;20463;-70
2023/05/16 08:43:14;;;;;;;58.47;3.63;;;;;;;;;;5072261;28;20487;-69
2023/05/16 08:45:41;;;;;;;57.17;2.30;;;;;;;;;;5072405;28;21012;-69
2023/05/16 08:48:10;;;;;;;57.30;2.70;;;;;;;;;;5072114;28;20952;-70
2023/05/16 08:50:37;;;;;;;57.30;2.90;;;;;;;;;;5071388;28;20475;-69
2023/05/16 08:53:07;;;;;;;57.70;2.70;;;;;;;;;;5072249;28;20450;-69
2023/05/16 08:55:36;;;;;;;59.30;3.03;;;;;;;;;;5072074;28;20896;-69
2023/05/16 08:58:03;;;;;;;58.13;3.27;;;;;;;;;;5072018;28;20826;-70
2023/05/16 09:00:31;;;;;;;59.60;2.97;;;;;;;;;;5071316;28;21010;-69
2023/05/16 09:02:58;;;;;;;58.00;3.20;;;;;;;;;;5071809;28;20519;-69
2023/05/16 09:05:26;;;;;;;59.03;2.80;;;;;;;;;;5071602;28;20451;-70
2023/05/16 09:07:53;;;;;;;58.00;3.17;;;;;;;;;;5071961;28;20443;-70
2023/05/16 09:10:21;;;;;;;56.90;2.57;;;;;;;;;;5071077;28;20477;-69
2023/05/16 09:12:49;;;;;;;57.37;2.77;;;;;;;;;;5071621;28;20450;-69
2023/05/16 09:15:18;;;;;;;57.33;2.70;;;;;;;;;;5071666;28;20451;-70
2023/05/16 09:17:47;;;;;;;57.60;3.63;;;;;;;;;;5071909;28;20435;-69
2023/05/16 09:20:15;;;;;;;57.07;2.33;;;;;;;;;;5070937;28;20478;-70
2023/05/16 09:22:51;;;;;;;57.67;3.20;;;;;;;;;;5071596;28;20506;-69
2023/05/16 09:25:18;;;;;;;57.30;3.50;;;;;;;;;;5071421;28;20470;-70
2023/05/16 09:27:48;;;;;;;57.77;3.00;;;;;;;;;;5071525;28;20458;-70
2023/05/16 09:30:16;;;;;;;57.37;3.30;;;;;;;;;;5070942;28;20895;-69
2023/05/16 09:32:46;;;;;;;57.97;4.40;;;;;;;;;;5071641;28;20443;-69
2023/05/16 09:35:16;;;;;;;57.00;2.60;;;;;;;;;;5071668;28;20454;-70
2023/05/16 09:37:46;;;;;;;57.93;3.00;;;;;;;;;;5071900;28;20501;-69
2023/05/16 09:40:13;;;;;;;57.60;3.27;;;;;;;;;;5070488;28;20440;-69
2023/05/16 09:42:40;;;;;;;57.77;3.10;;;;;;;;;;5071418;28;20448;-70
2023/05/16 09:45:12;;;;;;;57.37;3.27;;;;;;;;;;5071620;28;20474;-69
2023/05/16 09:47:45;;;;;;;59.70;3.30;;;;;;;;;;5071279;28;20967;-70
2023/05/16 09:50:12;;;;;;;61.93;3.00;;;;;;;;;;5070343;28;20544;-70
2023/05/16 09:52:39;;;;;;;58.33;4.20;;;;;;;;;;5071127;28;20936;-69
2023/05/16 09:55:07;;;;;;;57.50;3.20;;;;;;;;;;5071282;28;20447;-70
2023/05/16 09:57:37;;;;;;;56.97;2.40;;;;;;;;;;5071213;28;20452;-70
2023/05/16 10:00:07;;;;;;;57.50;3.37;;;;;;;;;;5070282;28;20936;-70
2023/05/16 10:02:35;;;;;;;58.57;3.07;;;;;;;;;;5070883;28;20482;-69
2023/05/16 10:05:02;;;;;;;58.60;4.30;;;;;;;;;;5070878;28;20451;-70
2023/05/16 10:07:32;;;;;;;57.50;2.77;;;;;;;;;;5071368;28;20443;-70
2023/05/16 10:10:00;;;;;;;58.07;3.07;;;;;;;;;;5070080;28;20969;-70
2023/05/16 10:12:30;;;;;;;57.17;2.80;;;;;;;;;;5071098;28;20454;-70
2023/05/16 10:14:57;;;;;;;59.67;4.23;;;;;;;;;;5071257;28;20444;-70
2023/05/16 10:17:26;;;;;;;57.90;2.90;;;;;;;;;;5072966;28;20466;-67
2023/05/16 10:19:54;;;;;;;62.40;3.43;;;;;;;;;;5074480;28;20542;-67
2023/05/16 10:22:23;;;;;;;57.30;2.80;;;;;;;;;;5075310;28;20462;-67
2023/05/16 10:24:54;;;;;;;58.80;4.20;;;;;;;;;;5074868;28;20493;-67
2023/05/16 10:27:22;;;;;;;56.97;2.40;;;;;;;;;;5074935;28;20955;-67
2023/05/16 10:29:50;;;;;;;58.37;3.47;;;;;;;;;;5074288;28;20796;-67
2023/05/16 10:32:17;;;;;;;58.77;4.43;;;;;;;;;;5074666;28;20482;-67
2023/05/16 10:34:45;;;;;;;57.20;2.80;;;;;;;;;;5075032;28;20475;-67
2023/05/16 10:37:13;;;;;;;58.27;3.60;;;;;;;;;;5075018;28;20451;-67
2023/05/16 10:39:41;;;;;;;58.50;3.67;;;;;;;;;;5074001;28;20538;-67
2023/05/16 10:42:08;;;;;;;57.80;3.33;;;;;;;;;;5074862;28;20467;-67
2023/05/16 10:44:39;;;;;;;57.80;3.20;;;;;;;;;;5074244;28;20486;-67
2023/05/16 10:47:06;;;;;;;57.50;2.50;;;;;;;;;;5075060;28;20846;-67
2023/05/16 10:49:33;;;;;;;58.23;3.30;;;;;;;;;;5072362;28;20823;-67
2023/05/16 10:52:05;;;;;;;59.60;4.03;;;;;;;;;;5074523;28;20473;-67
2023/05/16 10:54:40;;;;;;;57.00;2.60;;;;;;;;;;5074931;28;20438;-67
2023/05/16 10:57:09;;;;;;;59.93;3.97;;;;;;;;;;5074147;28;20553;-67
2023/05/16 10:59:43;;;;;;;57.30;2.90;;;;;;;;;;5073689;28;20868;-67
2023/05/16 11:02:23;;;;;;;57.50;2.70;;;;;;;;;;5074137;28;20471;-67
2023/05/16 11:04:51;;;;;;;58.67;3.80;;;;;;;;;;5074071;28;21049;-67
2023/05/16 11:07:19;;;;;;;57.33;2.97;;;;;;;;;;5073997;28;20451;-67
2023/05/16 11:09:56;;;;;;;57.57;3.07;;;;;;;;;;5073543;28;20450;-67
2023/05/16 11:12:23;;;;;;;57.67;3.03;;;;;;;;;;5074220;28;20458;-67
2023/05/16 11:14:51;;;;;;;58.03;3.93;;;;;;;;;;5073932;28;20944;-67
2023/05/16 11:17:21;;;;;;;57.33;3.17;;;;;;;;;;5074117;28;20459;-67
2023/05/16 11:19:49;;;;;;;57.50;2.70;;;;;;;;;;5073059;28;20541;-67
2023/05/16 11:22:23;;;;;;;57.17;2.90;;;;;;;;;;5073670;28;21060;-67
2023/05/16 11:24:59;;;;;;;57.10;2.40;;;;;;;;;;5073610;28;20490;-67
2023/05/16 11:27:27;;;;;;;57.90;3.97;;;;;;;;;;5073789;28;20435;-67
2023/05/16 11:29:56;;;;;;;58.27;3.03;;;;;;;;;;5072960;28;20475;-67
2023/05/16 11:32:23;;;;;;;58.80;3.80;;;;;;;;;;5073582;28;20443;-67
2023/05/16 11:34:51;;;;;;;57.60;2.80;;;;;;;;;;5073956;28;20447;-69
2023/05/16 11:37:18;;;;;;;58.00;4.00;;;;;;;;;;5074026;28;20740;-69
2023/05/16 11:39:46;;;;;;;57.07;2.60;;;;;;;;;;5073113;28;20530;-69
2023/05/16 11:42:14;;;;;;;57.07;2.30;;;;;;;;;;5073755;28;20469;-69
2023/05/16 11:44:41;;;;;;;56.97;2.50;;;;;;;;;;5073449;28;20493;-69
2023/05/16 11:47:09;;;;;;;58.67;2.73;;;;;;;;;;5073756;28;20451;-69
2023/05/16 11:49:36;;;;;;;57.20;2.60;;;;;;;;;;5072655;28;20455;-69
2023/05/16 11:52:03;;;;;;;60.30;3.38;;;;;;;;;;5064393;28;20453;-68
2023/05/16 11:54:31;;;;;;;57.40;2.83;;;;;;;;;;5053214;28;20204;-67
2023/05/16 11:56:58;;;;;;;57.40;3.00;;;;;;;;;;5053504;28;20452;-67
2023/05/16 11:59:27;;;;;;;64.00;3.80;;;;;;;;;;5052161;28;20812;-67
2023/05/16 12:01:54;;;;;;;56.97;2.93;;;;;;;;;;5052947;28;20976;-67
2023/05/16 12:04:22;;;;;;;57.10;2.50;;;;;;;;;;5053241;28;20493;-66
2023/05/16 12:06:58;;;;;;;57.87;3.43;;;;;;;;;;5053150;28;20455;-66
2023/05/16 12:09:25;;;;;;;57.00;2.10;;;;;;;;;;5052223;28;20440;-67
2023/05/16 12:11:53;;;;;;;57.37;2.53;;;;;;;;;;5052821;28;20472;-68
2023/05/16 12:14:20;;;;;;;57.20;2.30;;;;;;;;;;5052801;28;20979;-67
2023/05/16 12:16:49;;;;;;;57.57;3.40;;;;;;;;;;5052791;28;20479;-67
2023/05/16 12:19:16;;;;;;;57.50;2.93;;;;;;;;;;5052149;28;20452;-67
2023/05/16 12:21:44;;;;;;;57.17;2.40;;;;;;;;;;5052807;28;20495;-67
2023/05/16 12:24:11;;;;;;;57.07;2.40;;;;;;;;;;5052658;28;20484;-66
2023/05/16 12:26:40;;;;;;;57.33;2.57;;;;;;;;;;5052711;28;20455;-69
2023/05/16 12:29:07;;;;;;;56.87;2.97;;;;;;;;;;5051482;28;20455;-69
2023/05/16 12:31:36;;;;;;;56.90;2.47;;;;;;;;;;5052139;28;20844;-70
2023/05/16 12:34:05;;;;;;;57.13;2.73;;;;;;;;;;5052619;28;20448;-70
2023/05/16 12:36:33;;;;;;;57.07;2.50;;;;;;;;;;5052734;28;20543;-69
2023/05/16 12:39:02;;;;;;;57.00;2.60;;;;;;;;;;5050861;28;20448;-67
2023/05/16 12:41:30;;;;;;;57.10;2.10;;;;;;;;;;5052007;28;20639;-67
2023/05/16 12:44:07;;;;;;;57.73;2.47;;;;;;;;;;5052160;28;20476;-67
2023/05/16 12:46:34;;;;;;;57.10;2.70;;;;;;;;;;5052508;28;20429;-67
2023/05/16 12:49:04;;;;;;;56.90;2.40;;;;;;;;;;5051433;28;20452;-67
2023/05/16 12:51:33;;;;;;;58.17;2.40;;;;;;;;;;5051718;28;20467;-67
2023/05/16 12:54:08;;;;;;;56.87;2.20;;;;;;;;;;5051996;28;20451;-68
2023/05/16 12:56:35;;;;;;;56.87;2.73;;;;;;;;;;5052210;28;20452;-67
2023/05/16 12:59:02;;;;;;;57.10;2.60;;;;;;;;;;5050945;28;20953;-67
2023/05/16 13:01:29;;;;;;;58.03;2.90;;;;;;;;;;5051825;28;20559;-67
2023/05/16 13:03:56;;;;;;;57.07;2.50;;;;;;;;;;5049075;28;20476;-67
2023/05/16 13:06:24;;;;;;;56.87;2.80;;;;;;;;;;5051169;28;20912;-67
2023/05/16 13:08:52;;;;;;;56.77;2.40;;;;;;;;;;5051266;28;20460;-67
2023/05/16 13:11:19;;;;;;;57.30;2.50;;;;;;;;;;5052049;28;20559;-67
2023/05/16 13:13:46;;;;;;;57.50;2.47;;;;;;;;;;5051747;28;20995;-67
2023/05/16 13:16:14;;;;;;;57.20;2.40;;;;;;;;;;5051781;28;20466;-67
2023/05/16 13:18:41;;;;;;;56.87;2.30;;;;;;;;;;5050708;28;20459;-68
2023/05/16 13:21:08;;;;;;;57.87;2.73;;;;;;;;;;5051471;28;20533;-67
2023/05/16 13:23:35;;;;;;;58.50;2.80;;;;;;;;;;5051616;28;20923;-67
2023/05/16 13:26:04;;;;;;;56.93;2.50;;;;;;;;;;5051688;28;20445;-67
2023/05/16 13:28:31;;;;;;;56.87;2.17;;;;;;;;;;5050968;28;21033;-67
2023/05/16 13:30:59;;;;;;;56.83;2.30;;;;;;;;;;5051619;28;20521;-67
2023/05/16 13:33:26;;;;;;;56.80;2.30;;;;;;;;;;5051321;28;20454;-68
2023/05/16 13:35:54;;;;;;;56.93;2.20;;;;;;;;;;5051697;28;20447;-68
2023/05/16 13:38:21;;;;;;;56.63;2.20;;;;;;;;;;5051274;28;20448;-70
2023/05/16 13:40:48;;;;;;;57.00;2.17;;;;;;;;;;5050914;28;20468;-70
2023/05/16 13:43:17;;;;;;;56.87;2.20;;;;;;;;;;5051237;28;20454;-68
2023/05/16 13:45:44;;;;;;;57.50;2.70;;;;;;;;;;5051034;28;20479;-68
2023/05/16 13:48:11;;;;;;;57.07;2.40;;;;;;;;;;5051436;28;20448;-67
2023/05/16 13:50:39;;;;;;;57.30;2.40;;;;;;;;;;5050503;28;20495;-68
2023/05/16 13:53:07;;;;;;;56.80;2.30;;;;;;;;;;5051325;28;20452;-68
2023/05/16 13:55:34;;;;;;;57.07;2.50;;;;;;;;;;5051395;28;20449;-67
2023/05/16 13:58:01;;;;;;;57.17;2.60;;;;;;;;;;5051043;28;20451;-67
2023/05/16 14:00:30;;;;;;;56.87;2.47;;;;;;;;;;5050488;28;20521;-67
2023/05/16 14:02:57;;;;;;;56.87;2.30;;;;;;;;;;5051102;28;20452;-68
2023/05/16 14:05:25;;;;;;;57.40;2.80;;;;;;;;;;5051219;28;20480;-67
2023/05/16 14:07:52;;;;;;;58.37;2.80;;;;;;;;;;5051102;28;20499;-67
2023/05/16 14:10:19;;;;;;;56.90;2.20;;;;;;;;;;5050072;28;20502;-67
2023/05/16 14:12:46;;;;;;;56.90;2.40;;;;;;;;;;5050779;28;20448;-67
2023/05/16 14:15:13;;;;;;;57.20;2.30;;;;;;;;;;5051121;28;20459;-67
2023/05/16 14:17:41;;;;;;;57.17;2.87;;;;;;;;;;5051311;28;20448;-67
2023/05/16 14:20:09;;;;;;;57.40;3.23;;;;;;;;;;5050314;28;20448;-68
2023/05/16 14:22:36;;;;;;;56.90;2.30;;;;;;;;;;5050904;28;20455;-68
2023/05/16 14:25:04;;;;;;;57.10;2.40;;;;;;;;;;5050605;28;21008;-68
2023/05/16 14:27:32;;;;;;;56.87;2.10;;;;;;;;;;5051139;28;20542;-68
2023/05/16 14:29:59;;;;;;;56.93;2.30;;;;;;;;;;5050216;28;20820;-68
2023/05/16 14:32:26;;;;;;;56.83;2.30;;;;;;;;;;5050796;28;20452;-67
2023/05/16 14:34:55;;;;;;;59.27;4.20;;;;;;;;;;5050911;28;20444;-67